Latest Weather Observations for Braidwood

IDN60901

Issued at 5:51 pm EDT Friday 27 March 2015 (issued every 10 minutes, with the page automatically refreshed every 10 minutes)

About weather observations | Map of Canberra area stations | Latest observations for Canberra area | Other Formats
Station Details ID: 069132 Name: BRAIDWOOD RACECOURSE AWS Lat: -35.43 Lon: 149.78 Height: 665.2 m
Data from the previous 72 hours. | See also: Recent months at Braidwood
Date/Time
EDT
Tmp

°C
App
Tmp
°C
Dew
Point
°C
Rel
Hum
%
Delta-T

°C
Wind Press
QNH
hPa
Press
MSL
hPa
Rain
since
9 am
mm
Dir
 
Spd
km/h
Gust
km/h
Spd
kts
Gust
kts
27/05:30pm 18.0 11.6 1.1 32 7.8 W 24 33 13 18 1018.4 1016.4 0.0
27/05:00pm 18.9 12.5 1.0 30 8.3 WNW 24 35 13 19 1018.0 1016.0 0.0
27/04:30pm 19.1 13.0 0.2 28 8.6 W 22 37 12 20 1017.9 1015.9 0.0
27/04:00pm 19.8 12.9 0.3 27 9.0 W 26 37 14 20 1017.8 1015.8 0.0
27/03:30pm 20.0 13.4 -0.1 26 9.2 W 24 35 13 19 1018.0 1016.0 0.0
27/03:00pm 20.0 13.1 -0.1 26 9.2 W 26 39 14 21 1018.0 1016.0 0.0
27/02:35pm 19.3 11.8 -1.7 24 9.2 W 28 52 15 28 1018.0 1016.0 0.0
27/02:30pm 20.0 13.1 -0.1 26 9.2 WSW 26 44 14 24 1018.0 1016.0 0.0
27/02:00pm 19.5 12.3 0.5 28 8.7 WNW 28 41 15 22 1018.2 1016.2 0.0
27/01:35pm 19.0 11.8 0.6 29 8.5 WSW 28 46 15 25 1018.3 1016.3 0.0
27/01:30pm 18.6 11.4 0.7 30 8.2 W 28 43 15 23 1018.4 1016.4 0.0
27/01:00pm 18.3 13.3 3.4 37 7.2 WNW 19 37 10 20 1019.0 1017.0 0.0
27/12:30pm 16.9 10.8 2.9 39 6.6 W 24 43 13 23 1019.6 1017.6 0.0
27/12:00pm 16.1 8.9 2.9 41 6.2 WNW 30 52 16 28 1019.9 1017.9 0.0
27/11:57am 15.7 8.4 2.5 41 6.1 WNW 30 52 16 28 1019.9 1017.9 0.0
27/11:30am 15.1 8.2 2.6 43 5.8 WNW 28 39 15 21 1020.1 1018.2 0.0
27/11:00am 14.1 8.3 2.4 45 5.4 NW 22 37 12 20 1020.0 1018.1 0.0
27/10:30am 12.8 6.4 3.2 52 4.4 NW 26 35 14 19 1020.2 1018.3 0.0
27/10:00am 12.2 7.2 3.7 56 3.9 NW 19 28 10 15 1020.4 1018.5 0.0
27/09:30am 11.4 7.5 3.4 58 3.7 NW 13 22 7 12 1020.7 1018.7 0.0
27/09:00am 10.1 6.5 2.7 60 3.3 NNW 11 19 6 10 1020.8 1018.8 0.0
27/08:30am 9.2 6.5 2.5 63 3.0 NNE 6 13 3 7 1020.7 1018.7 0.0
27/08:00am 7.2 4.4 1.9 69 2.3 N 6 13 3 7 1020.4 1018.5 0.0
27/07:30am 5.5 3.3 1.2 74 1.8 NNW 2 7 1 4 1020.1 1018.2 0.0
27/07:00am 5.2 2.2 0.8 73 1.8 N 6 11 3 6 1019.8 1017.8 0.0
27/06:30am 3.5 1.4 -0.9 73 1.7 CALM 0 4 0 2 1019.5 1017.5 0.0
27/06:00am 4.7 2.1 -1.7 63 2.4 ENE 2 7 1 4 1019.3 1017.3 0.0
27/05:30am 6.9 2.8 -0.5 59 3.0 NW 11 17 6 9 1019.1 1017.1 0.0
27/05:00am 6.5 2.6 -1.2 58 3.0 NW 9 13 5 7 1019.1 1017.1 0.0
27/04:30am 7.5 2.9 -0.7 56 3.3 WNW 13 19 7 10 1018.8 1016.9 0.0
27/04:00am 7.1 2.6 -0.4 59 3.0 WNW 13 17 7 9 1019.4 1017.4 0.0
27/03:30am 6.8 3.4 -0.9 58 3.1 NW 7 11 4 6 1019.5 1017.5 0.0
27/03:00am 7.1 3.9 -0.8 57 3.1 NW 6 9 3 5 1019.5 1017.5 0.0
27/02:30am 6.9 4.0 -1.0 57 3.1 NNW 4 9 2 5 1019.7 1017.7 0.0
27/02:00am 6.6 4.0 -1.8 55 3.2 N 2 6 1 3 1019.8 1017.8 0.0
27/01:30am 5.8 3.6 -1.8 58 2.9 CALM 0 2 0 1 1019.9 1017.9 0.0
27/01:00am 7.0 4.0 -1.7 54 3.4 NNW 4 7 2 4 1019.9 1017.9 0.0
27/12:30am 7.9 4.6 -1.6 51 3.7 NNW 6 13 3 7 1020.4 1018.5 0.0
27/12:00am 8.4 5.0 -2.0 48 4.1 NNW 6 11 3 6 1020.4 1018.5 0.0
 
Date/Time
EDT
Tmp

°C
App
Tmp
°C
Dew
Point
°C
Rel
Hum
%
Delta-T

°C
Wind Press
QNH
hPa
Press
MSL
hPa
Rain
since
9 am
mm
Dir
 
Spd
km/h
Gust
km/h
Spd
kts
Gust
kts
26/11:30pm 8.5 4.9 -2.1 47 4.2 NNW 7 15 4 8 1020.4 1018.5 0.0
26/11:00pm 8.9 5.3 -2.1 46 4.3 NW 7 11 4 6 1020.4 1018.5 0.0
26/10:30pm 10.4 5.6 -2.6 40 5.1 NW 13 19 7 10 1020.4 1018.5 0.0
26/10:00pm 10.9 5.4 -2.1 40 5.2 WNW 17 28 9 15 1020.6 1018.6 0.0
26/09:30pm 10.6 5.4 -2.4 40 5.2 NW 15 20 8 11 1020.4 1018.5 0.0
26/09:00pm 11.0 5.5 -2.4 39 5.3 NW 17 22 9 12 1020.3 1018.4 0.0
26/08:30pm 11.2 6.0 -2.6 38 5.5 NW 15 24 8 13 1020.0 1018.1 0.0
26/08:00pm 11.9 7.1 -2.7 36 5.8 NW 13 20 7 11 1019.6 1017.6 0.0
26/07:30pm 12.2 8.1 -2.8 35 6.0 NW 9 15 5 8 1019.1 1017.1 0.0
26/07:00pm 12.9 8.9 -2.6 34 6.3 NW 9 19 5 10 1018.8 1016.9 0.0
26/06:30pm 14.8 9.0 -1.7 32 7.0 WNW 19 28 10 15 1018.3 1016.3 0.0
26/06:00pm 15.9 8.4 -1.2 31 7.4 WNW 28 41 15 22 1017.7 1015.7 0.0
26/05:30pm 16.7 8.8 1.2 35 7.1 WNW 32 43 17 23 1017.4 1015.4 0.0
26/05:06pm 17.2 9.4 1.6 35 7.2 WNW 32 50 17 27 1017.0 1015.0 0.0
26/05:00pm 17.3 9.5 1.7 35 7.2 WNW 32 43 17 23 1017.0 1015.0 0.0
26/04:31pm 18.0 10.1 2.3 35 7.4 WNW 33 54 18 29 1016.7 1014.7 0.0
26/04:30pm 17.8 9.4 1.7 34 7.5 WNW 35 54 19 29 1016.7 1014.7 0.0
26/04:11pm 18.6 11.7 2.4 34 7.7 NW 28 48 15 26 1016.5 1014.5 0.0
26/04:00pm 18.5 11.1 1.9 33 7.8 WNW 30 46 16 25 1016.5 1014.5 0.0
26/03:36pm 19.2 12.2 2.1 32 8.1 WNW 28 48 15 26 1016.3 1014.3 0.0
26/03:30pm 18.8 11.9 2.6 34 7.7 WNW 28 41 15 22 1016.3 1014.3 0.0
26/03:00pm 19.1 11.7 2.0 32 8.1 WNW 30 46 16 25 1016.4 1014.4 0.0
26/02:40pm 19.2 11.8 2.1 32 8.1 WNW 30 48 16 26 1016.4 1014.4 0.0
26/02:30pm 19.0 11.1 2.0 32 8.0 WNW 33 50 18 27 1016.3 1014.3 0.0
26/02:22pm 19.1 12.1 2.0 32 8.1 NW 28 48 15 26 1016.2 1014.2 0.0
26/02:00pm 19.2 13.2 3.4 35 7.7 WNW 24 35 13 19 1016.6 1014.6 0.0
26/01:33pm 18.6 11.8 2.9 35 7.5 WNW 28 48 15 26 1016.7 1014.7 0.0
26/01:30pm 18.1 10.7 2.0 34 7.6 WNW 30 48 16 26 1016.8 1014.8 0.0
26/01:17pm 18.3 11.0 2.6 35 7.5 WNW 30 54 16 29 1016.9 1014.9 0.0
26/01:00pm 18.0 11.1 2.7 36 7.3 WNW 28 43 15 23 1017.2 1015.2 0.0
26/12:30pm 17.3 11.3 3.2 39 6.7 WNW 24 39 13 21 1017.4 1015.4 0.0
26/12:00pm 17.8 12.6 3.7 39 6.8 WNW 20 30 11 16 1017.6 1015.6 0.0
26/11:30am 15.7 10.5 2.2 40 6.2 WNW 19 30 10 16 1017.9 1015.9 0.0
26/11:00am 15.5 10.9 3.9 46 5.5 WNW 17 26 9 14 1018.0 1016.0 0.0
26/10:30am 14.5 9.3 2.7 45 5.5 NW 19 32 10 17 1017.9 1015.9 0.0
26/10:00am 14.3 10.5 4.0 50 4.9 NW 13 22 7 12 1017.7 1015.7 0.0
26/09:30am 13.2 9.9 4.4 55 4.2 NNW 11 20 6 11 1017.7 1015.7 0.0
26/09:00am 12.2 9.6 6.0 66 3.0 N 9 17 5 9 1017.8 1015.8 0.2
26/08:30am 10.4 7.9 6.7 78 1.8 N 9 15 5 8 1017.8 1015.8 0.2
26/08:00am 8.7 5.9 5.3 79 1.6 N 9 15 5 8 1017.7 1015.7 0.2
26/07:30am 8.1 5.8 5.6 84 1.2 N 7 15 4 8 1017.4 1015.4 0.2
26/07:00am 7.8 5.6 5.3 84 1.2 N 6 11 3 6 1017.5 1015.5 0.2
26/06:30am 8.1 6.0 5.9 86 1.0 N 6 13 3 7 1017.2 1015.2 0.2
26/06:00am 8.0 6.1 6.5 90 0.7 NNW 6 11 3 6 1017.2 1015.2 0.2
26/05:30am 8.3 6.9 7.1 92 0.6 N 4 7 2 4 1017.2 1015.2 0.2
26/05:00am 9.0 7.8 7.9 93 0.5 N 4 6 2 3 1017.1 1015.1 0.2
26/04:30am 10.0 9.4 8.8 92 0.6 N 2 6 1 3 1017.0 1015.0 0.2
26/04:00am 10.7 10.4 8.8 88 1.0 CALM 0 0 0 0 1016.9 1014.9 0.2
26/03:30am 12.3 12.2 10.7 90 0.9 NNE 2 7 1 4 1017.1 1015.1 0.2
26/03:00am 12.7 11.9 11.1 90 0.9 NNW 6 11 3 6 1017.2 1015.2 0.2
26/02:30am 12.8 12.4 11.0 89 1.0 N 4 11 2 6 1017.5 1015.5 0.2
26/02:00am 13.0 12.6 11.2 89 1.0 N 4 7 2 4 1017.6 1015.6 0.2
26/01:30am 13.0 12.6 11.1 88 1.0 NNE 4 7 2 4 1018.0 1016.0 0.2
26/01:00am 12.9 12.5 11.1 89 1.0 N 4 9 2 5 1018.3 1016.3 0.2
26/12:30am 12.7 13.0 10.8 88 1.0 CALM 0 0 0 0 1018.4 1016.4 0.2
26/12:00am 12.9 13.2 11.0 88 1.0 CALM 0 0 0 0 1018.4 1016.4 0.2
 
Date/Time
EDT
Tmp

°C
App
Tmp
°C
Dew
Point
°C
Rel
Hum
%
Delta-T

°C
Wind Press
QNH
hPa
Press
MSL
hPa
Rain
since
9 am
mm
Dir
 
Spd
km/h
Gust
km/h
Spd
kts
Gust
kts
25/11:30pm 12.9 12.1 11.0 88 1.0 NE 6 9 3 5 1018.6 1016.6 0.2
25/11:00pm 12.8 11.9 10.7 87 1.1 NE 6 11 3 6 1018.8 1016.9 0.2
25/10:30pm 12.6 12.8 10.5 87 1.1 CALM 0 0 0 0 1018.8 1016.9 0.2
25/10:00pm 12.3 12.0 10.0 86 1.2 NE 2 6 1 3 1019.2 1017.2 0.2
25/09:30pm 12.0 12.0 9.7 86 1.2 CALM 0 0 0 0 1019.2 1017.2 0.2
25/09:00pm 11.7 11.7 9.9 89 0.9 CALM 0 0 0 0 1019.1 1017.1 0.2
25/08:30pm 11.0 10.7 8.6 85 1.2 CALM 0 0 0 0 1018.7 1016.8 0.2
25/08:00pm 11.4 11.1 8.8 84 1.3 CALM 0 0 0 0 1018.5 1016.5 0.2
25/07:30pm 11.9 10.5 8.9 82 1.6 ESE 6 6 3 3 1018.3 1016.3 0.2
25/07:00pm 12.8 10.9 8.9 77 2.0 ESE 9 13 5 7 1017.8 1015.8 0.2
25/06:30pm 14.1 11.4 9.1 72 2.6 E 13 19 7 10 1017.6 1015.6 0.2
25/06:00pm 15.2 12.3 9.6 69 3.0 ESE 15 24 8 13 1017.4 1015.4 0.2
25/05:30pm 16.7 13.5 9.9 64 3.7 E 17 22 9 12 1017.1 1015.1 0.2
25/05:00pm 16.4 13.1 9.6 64 3.7 ENE 17 24 9 13 1017.1 1015.1 0.2
25/04:30pm 17.5 13.9 9.9 61 4.1 E 19 24 10 13 1016.9 1014.9 0.2
25/04:00pm 17.9 15.1 8.5 54 5.0 E 13 20 7 11 1017.2 1015.2 0.2
25/03:30pm 20.2 18.6 8.2 46 6.4 N 6 11 3 6 1017.6 1015.6 0.2
25/03:00pm 17.9 15.9 7.3 50 5.5 ENE 7 13 4 7 1017.6 1015.6 0.2
25/02:30pm 17.3 15.5 7.9 54 4.9 E 7 13 4 7 1018.0 1016.0 0.2
25/02:00pm 18.2 16.2 8.5 53 5.2 NE 9 17 5 9 1018.3 1016.3 0.0
25/01:30pm 16.2 14.8 8.9 62 3.9 SE 6 13 3 7 1018.4 1016.4 0.0
25/01:00pm 15.7 14.4 7.5 58 4.2 SE 4 13 2 7 1018.7 1016.8 0.0
25/12:30pm 15.7 13.8 7.7 59 4.1 ENE 7 11 4 6 1019.1 1017.1 0.0
25/12:00pm 15.1 14.3 8.1 63 3.6 E 2 9 1 5 1019.2 1017.2 0.0
25/11:30am 14.6 13.1 8.3 66 3.3 SE 6 11 3 6 1019.0 1017.0 0.0
25/11:00am 14.4 12.7 8.4 67 3.1 ESE 7 11 4 6 1018.7 1016.8 0.0
25/10:30am 14.6 12.6 8.8 68 3.0 SE 9 15 5 8 1018.7 1016.8 0.0
25/10:00am 13.8 11.8 7.3 65 3.3 ESE 7 13 4 7 1018.7 1016.8 0.0
25/09:30am 13.2 12.9 8.5 73 2.4 CALM 0 0 0 0 1019.3 1017.3 0.0
25/09:00am 10.5 9.4 8.3 86 1.1 NNW 4 6 2 3 1019.3 1017.3 5.6
25/08:30am 9.4 8.5 7.7 89 0.8 WSW 2 4 1 2 1019.1 1017.1 5.6
25/08:00am 8.0 6.6 7.1 94 0.4 NNW 4 7 2 4 1018.5 1016.5 5.6
25/07:30am 6.8 5.9 5.9 94 0.4 CALM 0 0 0 0 1017.9 1015.9 5.6
25/07:00am 6.4 5.3 5.2 92 0.5 CALM 0 0 0 0 1017.2 1015.2 5.6
25/06:30am 7.5 6.2 5.8 89 0.8 SSW 2 4 1 2 1017.0 1015.0 5.6
25/06:00am 8.5 6.5 7.1 91 0.7 S 7 9 4 5 1016.5 1014.5 5.6
25/05:30am 9.0 8.6 8.1 94 0.4 CALM 0 0 0 0 1016.8 1014.8 5.6
25/05:00am 8.8 7.6 7.9 94 0.4 S 4 6 2 3 1016.7 1014.7 5.6
25/04:30am 7.9 7.1 6.5 91 0.7 CALM 0 0 0 0 1016.6 1014.6 5.6
25/04:00am 8.5 5.8 5.6 82 1.4 SSW 9 11 5 6 1016.1 1014.1 5.6
25/03:30am 9.2 7.3 6.8 85 1.2 SW 6 9 3 5 1016.2 1014.2 5.6
25/03:00am 10.8 8.6 7.7 81 1.6 SW 9 15 5 8 1016.2 1014.2 5.6
25/02:30am 11.2 8.2 7.9 80 1.7 SSW 13 19 7 10 1016.2 1014.2 5.6
25/02:00am 11.9 9.9 8.7 81 1.6 SW 9 15 5 8 1016.5 1014.5 5.6
25/01:30am 12.1 10.2 9.1 82 1.6 SW 9 13 5 7 1016.4 1014.4 5.6
25/01:00am 12.5 11.9 11.6 94 0.5 S 6 11 3 6 1016.2 1014.2 5.6
25/12:30am 12.7 11.6 11.8 94 0.5 S 9 17 5 9 1016.2 1014.2 5.6
25/12:00am 12.3 11.4 11.2 93 0.6 S 7 11 4 6 1016.0 1013.9 5.6
 
Date/Time
EDT
Tmp

°C
App
Tmp
°C
Dew
Point
°C
Rel
Hum
%
Delta-T

°C
Wind Press
QNH
hPa
Press
MSL
hPa
Rain
since
9 am
mm
Dir
 
Spd
km/h
Gust
km/h
Spd
kts
Gust
kts
24/11:30pm 13.1 12.5 12.2 94 0.5 SSE 7 11 4 6 1015.9 1013.8 5.6
24/11:00pm 13.1 12.7 12.3 95 0.4 SSE 6 11 3 6 1015.9 1013.8 5.6
24/10:30pm 12.9 11.8 12.1 95 0.4 S 9 11 5 6 1015.9 1013.8 5.6
24/10:00pm 12.8 12.1 11.9 94 0.5 SE 7 13 4 7 1015.5 1013.5 5.6
24/09:30pm 12.9 12.3 12.3 96 0.3 S 7 11 4 6 1015.4 1013.4 5.6
24/09:00pm 12.9 11.9 12.3 96 0.3 SSW 9 15 5 8 1015.1 1013.1 5.6
24/08:30pm 13.2 12.3 12.6 96 0.3 SSE 9 13 5 7 1014.3 1012.2 5.6
24/08:00pm 13.6 12.4 12.8 95 0.5 S 11 13 6 7 1013.8 1011.8 5.6
24/07:30pm 14.0 13.3 13.2 95 0.5 S 9 13 5 7 1013.1 1011.0 5.6
24/07:00pm 14.2 13.1 13.2 94 0.6 S 11 17 6 9 1012.8 1010.7 5.6
24/06:30pm 15.0 14.5 13.9 93 0.6 SSE 9 15 5 8 1012.3 1010.3 5.6
24/06:00pm 14.9 14.0 13.8 93 0.6 SE 11 17 6 9 1011.8 1009.7 5.6

Latest Capital City Observations: Canberra | Sydney | Melbourne | Brisbane | Adelaide | Perth | Hobart | Darwin

Other Formats:

Comma delimited format used in spreadsheet applications
http://www.bom.gov.au/fwo/IDN60903/IDN60903.94927.axf

JavaScript Object Notation format (JSON) in row-major order
http://www.bom.gov.au/fwo/IDN60903/IDN60903.94927.json